Frank Wiley Field
KMLS : rendu visible

Aérodrome :











RETROUVEZ-NOUS SUR...

 
LOGIN :

S'inscrire | Disclaimer

   EN    FR    IT 

 









Légende :    VFR   VFR Marginal   IFR   IFR Intensif   IFR Très Intensif
Visi : 
Plafond : 
>= 8 km
>= 3000ft
5 à 8 km
1000 à 3000 ft
1500m à 5 km
500 à 1000 ft
800 à 1500m
200 à 500 ft
< 800m
< 200 ft
Symboles :   Orages  Brouillard  Fortes neiges  Fortes précipitations  Vent > 20 kt






- Altitude de l'aérodrome : 2630 ft
- Code IATA : MLS


KMLS - Frank Wiley Field

DERNIER METAR :
  • 281953Z AUTO 34010G16KT 10SM CLR 20/01 A3027 RMK AO2 SLP246 T02000006 $

METARs EXPIRÉS :
  • 281853Z AUTO 36011G18KT 10SM CLR 17/01 A3028 RMK AO2 SLP250 T01720006
  • 281753Z AUTO 32012G17KT 290V350 10SM CLR 16/01 A3030 RMK AO2 SLP258 T01610011 10189 20072 58004

TAF KMLS
Valide du 28 à 18h jusqu'au 29 à 18h UTC


281721Z 2818/2918 35009KT P6SM SKC
FM290100 03005KT P6SM SCT200
FM290600 11011KT P6SM FEW120 BKN200
FIR KZLC / Amérique du Nord



MET'MAP, la Météo Aéronautique d'un coup d'oeil ! - Copyright ORBIFLY Décembre 2007 - Disclaimer

ORBIFLY MET'MAP TEAM :

Programmation & Développement : Alexandra Zaïnal
Sur une idée originale de : Baudouin d'Aumeries
Assistance à la programmation : Marc-Olivier Méhu
Soutien technique & logistique : Manuel Goepfert

Contact : metmap@orbifly.com




SOURCES & CREDITS :

   NOAA       Earth
Advisory